Time;durP1;ratioP1;P1;durP2;ratioP2;P2;SDS_P1;SDS_P2;PMS_P1;PMS_P2;Temp;Humidity;BMP_temperature;BMP_pressure;BME280_temperature;BME280_humidity;BME280_pressure;Samples;Min_cycle;Max_cycle;Signal;HPM_P1;HPM_P2
2023/09/24 00:00:32;;;;;;;8.45;2.88;;;;;;;;;;5012807;28;20386;-69
2023/09/24 00:02:58;;;;;;;9.65;3.08;;;;;;;;;;5010494;28;20036;-68
2023/09/24 00:05:23;;;;;;;6.72;2.50;;;;;;;;;;5005654;28;20572;-70
2023/09/24 00:07:49;;;;;;;9.80;2.55;;;;;;;;;;5007570;28;20040;-68
2023/09/24 00:10:14;;;;;;;5.93;3.05;;;;;;;;;;5009128;28;20044;-70
2023/09/24 00:12:40;;;;;;;4.80;2.83;;;;;;;;;;4989955;28;20085;-69
2023/09/24 00:15:07;;;;;;;5.97;2.78;;;;;;;;;;5008816;28;20048;-66
2023/09/24 00:17:32;;;;;;;6.72;2.67;;;;;;;;;;5008458;28;20026;-68
2023/09/24 00:19:58;;;;;;;7.50;3.08;;;;;;;;;;5009108;28;20076;-71
2023/09/24 00:22:23;;;;;;;7.90;2.95;;;;;;;;;;5009997;28;20029;-69
2023/09/24 00:24:49;;;;;;;7.60;2.47;;;;;;;;;;5008442;28;20075;-66
2023/09/24 00:27:15;;;;;;;6.50;2.67;;;;;;;;;;5008119;28;20052;-66
2023/09/24 00:29:40;;;;;;;10.35;2.88;;;;;;;;;;5009138;28;20045;-70
2023/09/24 00:32:05;;;;;;;7.10;2.80;;;;;;;;;;5009172;28;20017;-66
2023/09/24 00:34:31;;;;;;;8.32;2.70;;;;;;;;;;5006702;28;20028;-68
2023/09/24 00:36:57;;;;;;;8.82;3.10;;;;;;;;;;5008059;28;20409;-68
2023/09/24 00:39:23;;;;;;;8.10;2.72;;;;;;;;;;4990913;28;20018;-69
2023/09/24 00:41:49;;;;;;;11.55;2.85;;;;;;;;;;5008770;28;20097;-68
2023/09/24 00:44:15;;;;;;;10.30;2.85;;;;;;;;;;5007752;28;20097;-67
2023/09/24 00:46:44;;;;;;;6.57;2.70;;;;;;;;;;5008436;28;20136;-68
2023/09/24 00:49:10;;;;;;;5.97;2.30;;;;;;;;;;5007728;28;20476;-68
2023/09/24 00:51:35;;;;;;;6.25;2.53;;;;;;;;;;5008177;28;20018;-66
2023/09/24 00:54:01;;;;;;;8.90;2.90;;;;;;;;;;5008006;28;20048;-67
2023/09/24 00:56:27;;;;;;;8.27;2.60;;;;;;;;;;5007945;28;20021;-68
2023/09/24 00:58:52;;;;;;;10.77;3.03;;;;;;;;;;5007947;28;20132;-69
2023/09/24 01:01:20;;;;;;;4.82;2.33;;;;;;;;;;5007819;28;20112;-66
2023/09/24 01:03:48;;;;;;;5.35;2.47;;;;;;;;;;5007230;28;20421;-67
2023/09/24 01:06:14;;;;;;;6.65;2.78;;;;;;;;;;5001007;28;20098;-69
2023/09/24 01:08:41;;;;;;;7.40;2.55;;;;;;;;;;5008128;28;20640;-68
2023/09/24 01:11:07;;;;;;;10.52;2.38;;;;;;;;;;5007244;28;20030;-67
2023/09/24 01:13:39;;;;;;;4.95;2.17;;;;;;;;;;5007910;28;20726;-68
2023/09/24 01:16:07;;;;;;;5.30;2.20;;;;;;;;;;5006953;28;20464;-68
2023/09/24 01:18:36;;;;;;;7.43;2.95;;;;;;;;;;5003128;28;20029;-68
2023/09/24 01:21:02;;;;;;;8.63;2.67;;;;;;;;;;5007231;28;20089;-69
2023/09/24 01:23:29;;;;;;;8.27;3.15;;;;;;;;;;5008251;28;20014;-67
2023/09/24 01:25:55;;;;;;;7.18;2.50;;;;;;;;;;5007457;28;20037;-69
2023/09/24 01:28:21;;;;;;;5.18;2.25;;;;;;;;;;5010319;28;20053;-69
2023/09/24 01:30:46;;;;;;;11.48;2.78;;;;;;;;;;5007782;28;20049;-66
2023/09/24 01:33:11;;;;;;;7.93;2.65;;;;;;;;;;5009392;28;20110;-69
2023/09/24 01:35:39;;;;;;;11.18;3.28;;;;;;;;;;5007047;28;20456;-66
2023/09/24 01:38:05;;;;;;;7.07;2.97;;;;;;;;;;5006916;28;20040;-69
2023/09/24 01:40:33;;;;;;;7.38;3.10;;;;;;;;;;5007255;28;20573;-68
2023/09/24 01:42:59;;;;;;;8.52;3.47;;;;;;;;;;5007373;28;20476;-67
2023/09/24 01:45:26;;;;;;;7.15;3.08;;;;;;;;;;5006715;28;20017;-67
2023/09/24 01:47:52;;;;;;;7.45;3.33;;;;;;;;;;4989061;28;20021;-67
2023/09/24 01:50:17;;;;;;;7.07;2.90;;;;;;;;;;5006497;28;20472;-67
2023/09/24 01:52:44;;;;;;;6.65;3.30;;;;;;;;;;5007185;28;20038;-69
2023/09/24 01:55:13;;;;;;;8.25;2.80;;;;;;;;;;5006621;28;20044;-65
2023/09/24 01:57:40;;;;;;;11.15;3.35;;;;;;;;;;5007258;28;20120;-69
2023/09/24 02:00:11;;;;;;;8.25;3.28;;;;;;;;;;5007008;28;20029;-69
2023/09/24 02:02:37;;;;;;;8.07;3.60;;;;;;;;;;5006524;28;20386;-68
2023/09/24 02:05:06;;;;;;;10.05;3.50;;;;;;;;;;5003698;28;20033;-68
2023/09/24 02:07:31;;;;;;;;;;;;;;;;;;4982766;28;20049;-66
2023/09/24 02:09:56;;;;;;;8.35;3.20;;;;;;;;;;5006901;28;19945;-68
2023/09/24 02:12:21;;;;;;;8.65;3.47;;;;;;;;;;5006873;28;20072;-67
2023/09/24 02:14:47;;;;;;;10.10;3.53;;;;;;;;;;5006938;28;20022;-68
2023/09/24 02:17:12;;;;;;;7.15;3.20;;;;;;;;;;5007061;28;20504;-69
2023/09/24 02:19:37;;;;;;;9.45;3.72;;;;;;;;;;5005725;28;20097;-66
2023/09/24 02:22:03;;;;;;;7.95;2.97;;;;;;;;;;5008044;28;20025;-68
2023/09/24 02:24:28;;;;;;;7.88;2.85;;;;;;;;;;5006632;28;20093;-68
2023/09/24 02:26:54;;;;;;;9.23;2.97;;;;;;;;;;5007283;28;20024;-68
2023/09/24 02:29:19;;;;;;;8.15;3.35;;;;;;;;;;5006645;28;20076;-68
2023/09/24 02:31:44;;;;;;;7.65;2.95;;;;;;;;;;5009818;28;20376;-67
2023/09/24 02:34:09;;;;;;;7.97;2.92;;;;;;;;;;5006100;28;20038;-66
2023/09/24 02:36:35;;;;;;;8.55;2.75;;;;;;;;;;5009697;28;20022;-68
2023/09/24 02:39:00;;;;;;;8.40;2.80;;;;;;;;;;5010505;28;20054;-67
2023/09/24 02:41:25;;;;;;;7.93;3.47;;;;;;;;;;5010662;28;20041;-68
2023/09/24 02:43:50;;;;;;;9.73;3.33;;;;;;;;;;5010303;28;20014;-68
2023/09/24 02:46:16;;;;;;;6.80;2.67;;;;;;;;;;5010392;28;20018;-66
2023/09/24 02:48:44;;;;;;;7.47;2.75;;;;;;;;;;5009963;28;20018;-69
2023/09/24 02:51:10;;;;;;;7.67;2.90;;;;;;;;;;5010029;28;20502;-69
2023/09/24 02:53:36;;;;;;;6.18;3.10;;;;;;;;;;5010635;28;20014;-67
2023/09/24 02:56:03;;;;;;;9.95;3.38;;;;;;;;;;5010328;28;20041;-69
2023/09/24 02:58:29;;;;;;;10.68;2.88;;;;;;;;;;5008540;28;20022;-68
2023/09/24 03:00:54;;;;;;;6.18;2.78;;;;;;;;;;5010529;28;20079;-69
2023/09/24 03:03:19;;;;;;;6.03;2.75;;;;;;;;;;5009129;28;20026;-68
2023/09/24 03:05:45;;;;;;;9.00;2.92;;;;;;;;;;5007184;28;20519;-69
2023/09/24 03:08:11;;;;;;;6.82;2.85;;;;;;;;;;5009785;28;20455;-69
2023/09/24 03:10:36;;;;;;;7.85;3.00;;;;;;;;;;5010383;28;20021;-67
2023/09/24 03:13:04;;;;;;;7.13;3.05;;;;;;;;;;5009492;28;20024;-68
2023/09/24 03:15:29;;;;;;;7.80;2.67;;;;;;;;;;5009620;28;20022;-69
2023/09/24 03:17:55;;;;;;;5.57;2.60;;;;;;;;;;5009600;28;20040;-69
2023/09/24 03:20:20;;;;;;;6.20;2.50;;;;;;;;;;4991329;28;20121;-70
2023/09/24 03:22:48;;;;;;;11.40;3.03;;;;;;;;;;5010913;28;20385;-66
2023/09/24 03:25:17;;;;;;;5.60;2.73;;;;;;;;;;5009334;28;20096;-70
2023/09/24 03:27:43;;;;;;;9.57;4.15;;;;;;;;;;5009520;28;20407;-70
2023/09/24 03:30:14;;;;;;;8.38;3.80;;;;;;;;;;5009796;28;20049;-69
2023/09/24 03:32:42;;;;;;;10.73;4.07;;;;;;;;;;5014192;28;20469;-70
2023/09/24 03:35:09;;;;;;;14.40;3.80;;;;;;;;;;5008550;28;20037;-66
2023/09/24 03:37:37;;;;;;;15.13;3.65;;;;;;;;;;5009347;28;20267;-69
2023/09/24 03:40:05;;;;;;;13.03;4.00;;;;;;;;;;5009537;28;20017;-67
2023/09/24 03:42:30;;;;;;;14.25;4.13;;;;;;;;;;5008237;28;20033;-67
2023/09/24 03:44:56;;;;;;;8.80;4.13;;;;;;;;;;5007479;28;20088;-69
2023/09/24 03:47:21;;;;;;;10.50;4.07;;;;;;;;;;5006891;28;20049;-69
2023/09/24 03:49:46;;;;;;;11.07;4.38;;;;;;;;;;5007993;28;20022;-69
2023/09/24 03:52:12;;;;;;;11.63;4.40;;;;;;;;;;5008477;28;20438;-68
2023/09/24 03:54:38;;;;;;;10.73;4.03;;;;;;;;;;5008728;28;20016;-66
2023/09/24 03:57:05;;;;;;;10.90;4.40;;;;;;;;;;5008571;28;20026;-69
2023/09/24 03:59:34;;;;;;;13.10;4.43;;;;;;;;;;5008749;28;20458;-68
2023/09/24 04:02:00;;;;;;;13.80;4.32;;;;;;;;;;5008741;28;20441;-69
2023/09/24 04:04:26;;;;;;;10.07;4.28;;;;;;;;;;5007857;28;20032;-69
2023/09/24 04:06:51;;;;;;;12.43;4.30;;;;;;;;;;5005083;28;20014;-68
2023/09/24 04:09:17;;;;;;;11.77;4.43;;;;;;;;;;5008872;28;20397;-67
2023/09/24 04:11:42;;;;;;;9.15;4.20;;;;;;;;;;5008818;28;20338;-67
2023/09/24 04:14:07;;;;;;;14.52;5.75;;;;;;;;;;5008178;28;20024;-66
2023/09/24 04:16:32;;;;;;;11.98;5.28;;;;;;;;;;4990808;28;20133;-69
2023/09/24 04:18:57;;;;;;;9.88;4.38;;;;;;;;;;5008698;28;20072;-68
2023/09/24 04:21:24;;;;;;;13.13;4.57;;;;;;;;;;5008500;28;20088;-70
2023/09/24 04:23:49;;;;;;;9.65;4.78;;;;;;;;;;5009978;28;20090;-70
2023/09/24 04:26:21;;;;;;;14.00;4.80;;;;;;;;;;5007940;28;20406;-70
2023/09/24 04:28:46;;;;;;;9.52;4.70;;;;;;;;;;5009037;28;20017;-71
2023/09/24 04:31:12;;;;;;;9.35;4.75;;;;;;;;;;5008532;28;20025;-70
2023/09/24 04:33:37;;;;;;;11.20;4.63;;;;;;;;;;5011473;28;20042;-68
2023/09/24 04:36:03;;;;;;;13.93;4.10;;;;;;;;;;5007912;28;20040;-70
2023/09/24 04:38:28;;;;;;;11.63;4.18;;;;;;;;;;5009235;28;20018;-69
2023/09/24 04:40:53;;;;;;;9.80;4.32;;;;;;;;;;5009047;28;20017;-69
2023/09/24 04:43:18;;;;;;;10.70;4.30;;;;;;;;;;5008844;28;20045;-68
2023/09/24 04:45:44;;;;;;;9.63;3.38;;;;;;;;;;5008321;28;20021;-68
2023/09/24 04:48:09;;;;;;;10.25;3.30;;;;;;;;;;5008880;28;20611;-68
2023/09/24 04:50:35;;;;;;;13.45;3.40;;;;;;;;;;4990726;28;20087;-70
2023/09/24 04:53:00;;;;;;;9.63;3.17;;;;;;;;;;5008891;28;20369;-69
2023/09/24 04:55:25;;;;;;;6.55;3.05;;;;;;;;;;5008156;28;20093;-71
2023/09/24 04:57:51;;;;;;;7.65;2.97;;;;;;;;;;4990423;28;20014;-68
2023/09/24 05:00:16;;;;;;;6.55;2.25;;;;;;;;;;5008027;28;20006;-66
2023/09/24 05:02:41;;;;;;;5.47;2.33;;;;;;;;;;5009209;28;20512;-69
2023/09/24 05:05:07;;;;;;;8.00;2.30;;;;;;;;;;5003426;28;20054;-67
2023/09/24 05:07:32;;;;;;;5.43;2.28;;;;;;;;;;5008551;28;20602;-68
2023/09/24 05:09:57;;;;;;;6.43;2.45;;;;;;;;;;5008149;28;20080;-67
2023/09/24 05:12:23;;;;;;;5.90;2.50;;;;;;;;;;5007994;28;20092;-69
2023/09/24 05:14:48;;;;;;;12.88;2.80;;;;;;;;;;5008190;28;20102;-68
2023/09/24 05:17:13;;;;;;;5.20;2.38;;;;;;;;;;5007956;28;20041;-70
2023/09/24 05:19:38;;;;;;;8.40;3.00;;;;;;;;;;5007773;28;20048;-68
2023/09/24 05:22:04;;;;;;;5.78;2.33;;;;;;;;;;5009062;28;20089;-68
2023/09/24 05:24:32;;;;;;;10.55;2.83;;;;;;;;;;5007235;28;20097;-67
2023/09/24 05:26:57;;;;;;;6.53;2.30;;;;;;;;;;5007682;28;20018;-68
2023/09/24 05:29:23;;;;;;;10.05;2.88;;;;;;;;;;4982591;28;20100;-68
2023/09/24 05:31:49;;;;;;;7.93;2.40;;;;;;;;;;5010228;28;20013;-67
2023/09/24 05:34:14;;;;;;;6.68;2.30;;;;;;;;;;5006938;28;20333;-67
2023/09/24 05:36:39;;;;;;;6.63;3.05;;;;;;;;;;5007536;28;20010;-67
2023/09/24 05:39:05;;;;;;;4.95;2.58;;;;;;;;;;5007115;28;20097;-65
2023/09/24 05:41:30;;;;;;;6.68;2.42;;;;;;;;;;5007734;28;20006;-68
2023/09/24 05:44:00;;;;;;;8.05;2.60;;;;;;;;;;5007221;28;20080;-69
2023/09/24 05:46:26;;;;;;;9.65;2.72;;;;;;;;;;5005915;28;20009;-67
2023/09/24 05:48:53;;;;;;;6.88;2.38;;;;;;;;;;5001441;28;20031;-67
2023/09/24 05:51:18;;;;;;;9.75;3.78;;;;;;;;;;4999972;28;20042;-66
2023/09/24 05:53:43;;;;;;;6.22;2.80;;;;;;;;;;5000003;28;20103;-69
2023/09/24 05:56:09;;;;;;;9.15;2.58;;;;;;;;;;5000292;28;20170;-68
2023/09/24 05:58:34;;;;;;;12.02;2.50;;;;;;;;;;5001809;28;20095;-68
2023/09/24 06:00:59;;;;;;;6.63;2.53;;;;;;;;;;5000257;28;20011;-68
2023/09/24 06:03:24;;;;;;;7.78;2.65;;;;;;;;;;5000429;28;20384;-68
2023/09/24 06:05:50;;;;;;;9.05;2.60;;;;;;;;;;5000404;28;20022;-70
2023/09/24 06:08:15;;;;;;;7.15;2.40;;;;;;;;;;5002241;28;20453;-70
2023/09/24 06:10:44;;;;;;;6.30;2.20;;;;;;;;;;5006039;28;20018;-69
2023/09/24 06:13:11;;;;;;;8.57;2.45;;;;;;;;;;5006202;28;20030;-70
2023/09/24 06:15:37;;;;;;;10.55;2.53;;;;;;;;;;5004879;28;20022;-67
2023/09/24 06:18:02;;;;;;;5.45;2.38;;;;;;;;;;5008172;28;20029;-70
2023/09/24 06:20:28;;;;;;;7.88;2.45;;;;;;;;;;5005001;28;20010;-68
2023/09/24 06:22:53;;;;;;;8.27;2.38;;;;;;;;;;5009668;28;20006;-69
2023/09/24 06:25:19;;;;;;;5.28;2.60;;;;;;;;;;4969466;28;20026;-70
2023/09/24 06:27:44;;;;;;;9.10;2.97;;;;;;;;;;5004781;28;20018;-67
2023/09/24 06:30:10;;;;;;;8.73;2.38;;;;;;;;;;5006054;28;20018;-69
2023/09/24 06:32:36;;;;;;;4.78;2.42;;;;;;;;;;5009362;28;20006;-69
2023/09/24 06:35:02;;;;;;;6.97;2.85;;;;;;;;;;5005380;28;20504;-70
2023/09/24 06:37:28;;;;;;;7.25;2.90;;;;;;;;;;5009472;28;20021;-68
2023/09/24 06:39:54;;;;;;;9.65;2.45;;;;;;;;;;5007513;28;20010;-69
2023/09/24 06:42:19;;;;;;;6.00;2.78;;;;;;;;;;4987544;28;20026;-69
2023/09/24 06:44:45;;;;;;;5.25;2.60;;;;;;;;;;5005990;28;20021;-67
2023/09/24 06:47:10;;;;;;;6.95;2.55;;;;;;;;;;5006040;28;20032;-71
2023/09/24 06:49:35;;;;;;;9.57;2.72;;;;;;;;;;5007155;28;20017;-68
2023/09/24 06:52:00;;;;;;;8.40;2.63;;;;;;;;;;4999043;28;20136;-70
2023/09/24 06:54:25;;;;;;;10.43;2.78;;;;;;;;;;5001751;28;20139;-65
2023/09/24 06:56:51;;;;;;;5.68;2.67;;;;;;;;;;5003905;28;20090;-70
2023/09/24 06:59:16;;;;;;;7.20;3.00;;;;;;;;;;5002124;28;20481;-68
2023/09/24 07:01:41;;;;;;;9.75;3.47;;;;;;;;;;5001456;28;20345;-70
2023/09/24 07:04:06;;;;;;;6.55;3.30;;;;;;;;;;5001360;28;20029;-68
2023/09/24 07:06:32;;;;;;;6.88;3.28;;;;;;;;;;5003645;28;20038;-68
2023/09/24 07:08:58;;;;;;;7.00;3.30;;;;;;;;;;5003864;28;20578;-69
2023/09/24 07:11:34;;;;;;;9.15;3.67;;;;;;;;;;5008180;28;20037;-67
2023/09/24 07:13:59;;;;;;;9.40;3.55;;;;;;;;;;5008844;28;20026;-68
2023/09/24 07:16:25;;;;;;;9.38;3.08;;;;;;;;;;5002504;28;20013;-69
2023/09/24 07:18:52;;;;;;;8.02;3.08;;;;;;;;;;5002512;28;20028;-70
2023/09/24 07:21:21;;;;;;;8.30;3.55;;;;;;;;;;5001552;28;20038;-68
2023/09/24 07:23:51;;;;;;;9.25;3.30;;;;;;;;;;5003521;28;20053;-69
2023/09/24 07:26:16;;;;;;;8.93;3.75;;;;;;;;;;5002365;28;20031;-67
2023/09/24 07:28:43;;;;;;;6.95;3.08;;;;;;;;;;5002119;28;20376;-69
2023/09/24 07:31:12;;;;;;;13.70;3.55;;;;;;;;;;5005288;28;20446;-65
2023/09/24 07:33:37;;;;;;;9.85;3.63;;;;;;;;;;5003616;28;20573;-68
2023/09/24 07:36:02;;;;;;;7.00;3.05;;;;;;;;;;4984968;28;20038;-69
2023/09/24 07:38:28;;;;;;;8.18;3.45;;;;;;;;;;5001760;28;20029;-68
2023/09/24 07:40:53;;;;;;;6.40;2.85;;;;;;;;;;5002889;28;20014;-69
2023/09/24 07:43:19;;;;;;;11.15;3.67;;;;;;;;;;4984853;28;20014;-68
2023/09/24 07:45:44;;;;;;;6.72;3.22;;;;;;;;;;5001862;28;20026;-67
2023/09/24 07:48:13;;;;;;;14.98;4.43;;;;;;;;;;5001495;28;20026;-68
2023/09/24 07:50:38;;;;;;;;;;;;;;;;;;5002087;28;20536;-67
2023/09/24 07:53:05;;;;;;;10.38;3.47;;;;;;;;;;5001458;28;19992;-68
2023/09/24 07:55:31;;;;;;;5.60;2.78;;;;;;;;;;5001967;28;20010;-69
2023/09/24 07:57:56;;;;;;;7.38;3.05;;;;;;;;;;5000446;28;20365;-69
2023/09/24 08:00:21;;;;;;;8.57;3.00;;;;;;;;;;5003643;28;20024;-69
2023/09/24 08:02:47;;;;;;;7.25;2.67;;;;;;;;;;5002243;28;20533;-68
2023/09/24 08:05:12;;;;;;;7.35;3.00;;;;;;;;;;5002349;28;20473;-69
2023/09/24 08:07:37;;;;;;;10.60;3.15;;;;;;;;;;5000821;28;20072;-68
2023/09/24 08:10:03;;;;;;;9.73;3.08;;;;;;;;;;5003703;28;20140;-69
2023/09/24 08:12:29;;;;;;;7.55;3.30;;;;;;;;;;5001990;28;20445;-68
2023/09/24 08:14:55;;;;;;;8.15;3.00;;;;;;;;;;5001130;28;20029;-69
2023/09/24 08:17:20;;;;;;;12.68;3.40;;;;;;;;;;4998804;28;20022;-70
2023/09/24 08:19:45;;;;;;;7.50;3.50;;;;;;;;;;4999262;28;20054;-70
2023/09/24 08:22:11;;;;;;;9.23;3.65;;;;;;;;;;5001413;28;20025;-70
2023/09/24 08:24:36;;;;;;;8.43;4.00;;;;;;;;;;5001700;28;20500;-68
2023/09/24 08:27:02;;;;;;;13.25;4.15;;;;;;;;;;5000351;28;20055;-69
2023/09/24 08:29:28;;;;;;;7.50;3.33;;;;;;;;;;5001947;28;20028;-68
2023/09/24 08:31:53;;;;;;;9.98;4.00;;;;;;;;;;5002314;28;20029;-68
2023/09/24 08:34:19;;;;;;;7.72;3.65;;;;;;;;;;5001487;28;20199;-69
2023/09/24 08:36:44;;;;;;;11.85;3.63;;;;;;;;;;5002352;28;21137;-68
2023/09/24 08:39:09;;;;;;;8.27;3.65;;;;;;;;;;5000455;28;20030;-68
2023/09/24 08:41:41;;;;;;;8.35;3.20;;;;;;;;;;5002858;28;20067;-69
2023/09/24 08:44:10;;;;;;;7.93;3.30;;;;;;;;;;5002525;28;20030;-68
2023/09/24 08:46:35;;;;;;;6.05;3.45;;;;;;;;;;5002722;28;20014;-73
2023/09/24 08:49:02;;;;;;;9.25;3.20;;;;;;;;;;5002162;28;20104;-68
2023/09/24 08:51:27;;;;;;;12.55;3.20;;;;;;;;;;5002373;28;20133;-70
2023/09/24 08:53:53;;;;;;;8.82;2.28;;;;;;;;;;5002270;28;20030;-70
2023/09/24 08:56:20;;;;;;;7.18;2.72;;;;;;;;;;4993554;28;20034;-71
2023/09/24 08:58:45;;;;;;;10.57;3.60;;;;;;;;;;5001085;28;20061;-72
2023/09/24 09:01:10;;;;;;;10.68;3.80;;;;;;;;;;5002307;28;20034;-71
2023/09/24 09:03:36;;;;;;;8.73;2.78;;;;;;;;;;5001901;28;20028;-68
2023/09/24 09:06:03;;;;;;;15.98;4.10;;;;;;;;;;5001569;28;20010;-68
2023/09/24 09:08:28;;;;;;;16.38;6.03;;;;;;;;;;5001260;28;20036;-70
2023/09/24 09:10:54;;;;;;;11.38;3.30;;;;;;;;;;5002475;28;20022;-69
2023/09/24 09:13:20;;;;;;;8.40;2.42;;;;;;;;;;5002074;28;20121;-71
2023/09/24 09:15:50;;;;;;;6.43;2.50;;;;;;;;;;5003033;28;20056;-68
2023/09/24 09:18:23;;;;;;;8.15;2.75;;;;;;;;;;5000091;28;20084;-70
2023/09/24 09:20:49;;;;;;;7.53;2.80;;;;;;;;;;5002936;28;20478;-72
2023/09/24 09:23:17;;;;;;;11.43;3.03;;;;;;;;;;5002224;28;20089;-69
2023/09/24 09:25:46;;;;;;;8.10;2.83;;;;;;;;;;5002760;28;20092;-71
2023/09/24 09:28:38;;;;;;;7.65;3.00;;;;;;;;;;5001353;28;20364;-70
2023/09/24 09:31:07;;;;;;;6.63;2.95;;;;;;;;;;4980707;28;20053;-71
2023/09/24 09:33:40;;;;;;;18.60;2.90;;;;;;;;;;5001041;28;20117;-69
2023/09/24 09:36:19;;;;;;;5.57;2.58;;;;;;;;;;5003033;28;20447;-71
2023/09/24 09:38:45;;;;;;;5.45;2.15;;;;;;;;;;4984175;28;20062;-68
2023/09/24 09:41:10;;;;;;;7.55;2.65;;;;;;;;;;5002961;28;20604;-70
2023/09/24 09:43:36;;;;;;;8.10;2.42;;;;;;;;;;5002430;28;20509;-70
2023/09/24 09:46:03;;;;;;;7.72;2.42;;;;;;;;;;5000238;28;20046;-68
2023/09/24 09:48:29;;;;;;;4.82;1.77;;;;;;;;;;4999859;28;20567;-70
2023/09/24 09:50:57;;;;;;;5.65;1.95;;;;;;;;;;4999362;28;20029;-71
2023/09/24 09:53:24;;;;;;;9.00;2.10;;;;;;;;;;5001267;28;20748;-68
2023/09/24 09:55:52;;;;;;;4.80;1.88;;;;;;;;;;5002658;28;20148;-71
2023/09/24 09:58:18;;;;;;;3.67;1.73;;;;;;;;;;5000962;28;20033;-71
2023/09/24 10:00:43;;;;;;;4.57;1.85;;;;;;;;;;5001743;28;20034;-67
2023/09/24 10:03:10;;;;;;;6.50;1.92;;;;;;;;;;5000178;28;20624;-70
2023/09/24 10:05:35;;;;;;;5.85;1.67;;;;;;;;;;5001673;28;20068;-68
2023/09/24 10:08:20;;;;;;;5.80;2.25;;;;;;;;;;4999911;28;20022;-69
2023/09/24 10:10:46;;;;;;;6.35;1.30;;;;;;;;;;5001874;28;20100;-69
2023/09/24 10:13:30;;;;;;;2.72;1.45;;;;;;;;;;5001028;28;20030;-69
2023/09/24 10:15:55;;;;;;;2.53;1.23;;;;;;;;;;5000359;28;20028;-71
2023/09/24 10:18:21;;;;;;;2.13;1.05;;;;;;;;;;4999146;28;20038;-69
2023/09/24 10:20:49;;;;;;;1.50;0.90;;;;;;;;;;5001685;28;20017;-68
2023/09/24 10:23:29;;;;;;;3.47;1.30;;;;;;;;;;4999908;28;20263;-70
2023/09/24 10:25:59;;;;;;;5.00;1.27;;;;;;;;;;5002619;28;20026;-68
2023/09/24 10:28:44;;;;;;;3.22;1.20;;;;;;;;;;5005902;28;20093;-70
2023/09/24 10:31:11;;;;;;;3.25;1.25;;;;;;;;;;5003175;28;20029;-71
2023/09/24 10:33:56;;;;;;;2.35;1.10;;;;;;;;;;5006150;28;20096;-71
2023/09/24 10:36:28;;;;;;;4.75;1.38;;;;;;;;;;5006016;28;20029;-68
2023/09/24 10:39:02;;;;;;;2.65;1.33;;;;;;;;;;5005343;28;20092;-70
2023/09/24 10:41:27;;;;;;;2.28;1.30;;;;;;;;;;5006069;28;20414;-68
2023/09/24 10:44:12;;;;;;;2.75;1.10;;;;;;;;;;5005916;28;20109;-69
2023/09/24 10:46:37;;;;;;;3.78;1.55;;;;;;;;;;4999334;28;20563;-69
2023/09/24 10:49:03;;;;;;;2.80;0.90;;;;;;;;;;5006892;28;20053;-68
2023/09/24 10:51:28;;;;;;;3.30;1.02;;;;;;;;;;5006435;28;20469;-71
2023/09/24 10:54:09;;;;;;;5.38;0.98;;;;;;;;;;5006180;28;20026;-68
2023/09/24 10:56:35;;;;;;;4.43;1.10;;;;;;;;;;5004390;28;20030;-69
2023/09/24 10:59:01;;;;;;;5.57;1.63;;;;;;;;;;5010270;28;20373;-67
2023/09/24 11:01:30;;;;;;;5.88;1.75;;;;;;;;;;4987094;28;20010;-72
2023/09/24 11:03:55;;;;;;;5.13;1.50;;;;;;;;;;5006130;28;20044;-68
2023/09/24 11:06:28;;;;;;;3.97;1.58;;;;;;;;;;5010325;28;20433;-69
2023/09/24 11:08:53;;;;;;;2.75;1.05;;;;;;;;;;5009588;28;20457;-69
2023/09/24 11:11:19;;;;;;;2.35;0.85;;;;;;;;;;5010619;28;20069;-69
2023/09/24 11:13:44;;;;;;;2.85;1.13;;;;;;;;;;5010212;28;20014;-68
2023/09/24 11:16:09;;;;;;;2.60;1.10;;;;;;;;;;5009198;28;20025;-68
2023/09/24 11:18:35;;;;;;;5.95;1.17;;;;;;;;;;5009967;28;20472;-68
2023/09/24 11:21:00;;;;;;;4.03;1.27;;;;;;;;;;5009900;28;20022;-68
2023/09/24 11:23:25;;;;;;;5.93;1.10;;;;;;;;;;5011027;28;20480;-69
2023/09/24 11:25:51;;;;;;;3.70;1.20;;;;;;;;;;5010102;28;20057;-66
2023/09/24 11:28:16;;;;;;;2.45;1.10;;;;;;;;;;5009029;28;20101;-69
2023/09/24 11:30:49;;;;;;;1.33;0.82;;;;;;;;;;5009989;28;20088;-67
2023/09/24 11:33:18;;;;;;;3.30;1.05;;;;;;;;;;5011169;28;20396;-67
2023/09/24 11:35:44;;;;;;;4.10;1.40;;;;;;;;;;5009192;28;20445;-68
2023/09/24 11:38:09;;;;;;;5.28;1.30;;;;;;;;;;5008677;28;20053;-68
2023/09/24 11:40:36;;;;;;;4.97;1.45;;;;;;;;;;5011973;28;20365;-66
2023/09/24 11:43:11;;;;;;;4.43;1.42;;;;;;;;;;5007894;28;20067;-70
2023/09/24 11:45:48;;;;;;;3.42;0.90;;;;;;;;;;5008221;28;20020;-69
2023/09/24 11:48:13;;;;;;;3.05;0.98;;;;;;;;;;5017942;28;20364;-70
2023/09/24 11:50:39;;;;;;;1.83;1.23;;;;;;;;;;5010000;28;20021;-70
2023/09/24 11:53:05;;;;;;;3.15;1.10;;;;;;;;;;5008991;28;20026;-68
2023/09/24 11:55:30;;;;;;;6.57;1.20;;;;;;;;;;5009523;28;20022;-69
2023/09/24 11:57:56;;;;;;;4.63;1.20;;;;;;;;;;5009006;28;20024;-69
2023/09/24 12:00:21;;;;;;;5.60;1.10;;;;;;;;;;5013410;28;20035;-70
2023/09/24 12:02:46;;;;;;;5.53;1.25;;;;;;;;;;5008541;28;20080;-69
2023/09/24 12:05:12;;;;;;;2.40;1.00;;;;;;;;;;4991120;28;20080;-70
2023/09/24 12:07:37;;;;;;;3.58;1.10;;;;;;;;;;5008162;28;20057;-69
2023/09/24 12:10:02;;;;;;;3.20;1.00;;;;;;;;;;4987773;28;20036;-69
2023/09/24 12:12:27;;;;;;;3.92;1.15;;;;;;;;;;5007254;28;20113;-70
2023/09/24 12:14:53;;;;;;;4.28;1.10;;;;;;;;;;5009915;28;20021;-69
2023/09/24 12:17:19;;;;;;;3.13;1.00;;;;;;;;;;5009136;28;20575;-70
2023/09/24 12:19:45;;;;;;;1.50;0.80;;;;;;;;;;5008070;28;20009;-71
2023/09/24 12:22:10;;;;;;;2.05;0.88;;;;;;;;;;5009613;28;20029;-68
2023/09/24 12:24:35;;;;;;;1.63;0.90;;;;;;;;;;5008340;28;20029;-70
2023/09/24 12:27:00;;;;;;;2.90;1.00;;;;;;;;;;5008715;28;20283;-69
2023/09/24 12:29:26;;;;;;;2.47;0.85;;;;;;;;;;5008600;28;20085;-68
2023/09/24 12:31:51;;;;;;;3.67;1.00;;;;;;;;;;5009421;28;20133;-69
2023/09/24 12:34:16;;;;;;;2.45;0.93;;;;;;;;;;5008084;28;20026;-69
2023/09/24 12:36:42;;;;;;;7.43;1.77;;;;;;;;;;5007649;28;20022;-69
2023/09/24 12:39:07;;;;;;;3.00;1.35;;;;;;;;;;5007533;28;20049;-70
2023/09/24 12:41:32;;;;;;;3.05;0.80;;;;;;;;;;5008588;28;20021;-68
2023/09/24 12:43:57;;;;;;;3.77;1.00;;;;;;;;;;5008305;28;20021;-70
2023/09/24 12:46:23;;;;;;;6.28;1.25;;;;;;;;;;5007779;28;20271;-71
2023/09/24 12:48:48;;;;;;;3.50;1.05;;;;;;;;;;5008729;28;20024;-70
2023/09/24 12:51:13;;;;;;;3.97;1.00;;;;;;;;;;5006996;28;20020;-68
2023/09/24 12:53:40;;;;;;;3.22;0.90;;;;;;;;;;5007041;28;20090;-75
2023/09/24 12:56:05;;;;;;;5.95;2.20;;;;;;;;;;5004133;28;20311;-70
2023/09/24 12:58:30;;;;;;;1.80;0.98;;;;;;;;;;5007773;28;20500;-72
2023/09/24 13:00:55;;;;;;;1.42;0.80;;;;;;;;;;5007447;28;20395;-70
2023/09/24 13:03:21;;;;;;;6.05;1.20;;;;;;;;;;5007860;28;20491;-69
2023/09/24 13:05:46;;;;;;;3.22;1.00;;;;;;;;;;5006814;28;20016;-69
2023/09/24 13:08:12;;;;;;;2.80;1.03;;;;;;;;;;5007533;28;20021;-67
2023/09/24 13:10:38;;;;;;;4.00;1.65;;;;;;;;;;5006894;28;20269;-68
2023/09/24 13:13:03;;;;;;;4.03;1.20;;;;;;;;;;5007385;28;20022;-67
2023/09/24 13:15:28;;;;;;;2.80;0.90;;;;;;;;;;5006560;28;20139;-67
2023/09/24 13:17:53;;;;;;;1.83;0.83;;;;;;;;;;5006120;28;20183;-66
2023/09/24 13:20:19;;;;;;;3.47;0.95;;;;;;;;;;5006862;28;20425;-68
2023/09/24 13:22:44;;;;;;;2.17;1.00;;;;;;;;;;5001902;28;20006;-66
2023/09/24 13:25:09;;;;;;;2.85;0.90;;;;;;;;;;5003561;28;20575;-68
2023/09/24 13:27:35;;;;;;;5.18;0.88;;;;;;;;;;5007649;28;20013;-68
2023/09/24 13:30:01;;;;;;;4.60;1.00;;;;;;;;;;5008256;28;20021;-68
2023/09/24 13:32:26;;;;;;;2.58;1.10;;;;;;;;;;5012065;28;20053;-67
2023/09/24 13:34:51;;;;;;;5.03;1.40;;;;;;;;;;5006673;28;20022;-68
2023/09/24 13:37:16;;;;;;;3.42;1.15;;;;;;;;;;5007334;28;20013;-68
2023/09/24 13:39:42;;;;;;;3.47;0.90;;;;;;;;;;5006834;28;20010;-68
2023/09/24 13:42:07;;;;;;;2.78;1.05;;;;;;;;;;5007930;28;20056;-67
2023/09/24 13:44:32;;;;;;;2.30;0.90;;;;;;;;;;5006470;28;20010;-65
2023/09/24 13:46:58;;;;;;;2.92;1.00;;;;;;;;;;4988617;28;20168;-67
2023/09/24 13:49:23;;;;;;;2.72;0.85;;;;;;;;;;5006048;28;20022;-68
2023/09/24 13:51:49;;;;;;;5.88;0.93;;;;;;;;;;5007794;28;20092;-66
2023/09/24 13:54:14;;;;;;;2.30;0.82;;;;;;;;;;4999578;28;20018;-67
2023/09/24 13:56:40;;;;;;;3.92;1.10;;;;;;;;;;5006103;28;20037;-67
2023/09/24 13:59:05;;;;;;;2.08;0.80;;;;;;;;;;5006778;28;20022;-67
2023/09/24 14:01:30;;;;;;;8.20;0.85;;;;;;;;;;5006924;28;20041;-68
2023/09/24 14:03:56;;;;;;;6.95;1.00;;;;;;;;;;4995545;28;20108;-68
2023/09/24 14:06:21;;;;;;;7.45;0.98;;;;;;;;;;5006552;28;20387;-68
2023/09/24 14:14:14;;;;;;;12.70;1.00;;;;;;;;;;5006097;28;20017;-66
2023/09/24 14:16:42;;;;;;;2.45;0.75;;;;;;;;;;5006957;28;20022;-67
2023/09/24 14:19:08;;;;;;;3.30;0.95;;;;;;;;;;4989165;28;20029;-68
2023/09/24 14:21:34;;;;;;;3.40;1.00;;;;;;;;;;5007461;28;20017;-66
2023/09/24 14:24:00;;;;;;;3.15;1.05;;;;;;;;;;5008313;28;20056;-68
2023/09/24 14:26:25;;;;;;;2.55;1.00;;;;;;;;;;4988232;28;20021;-68
2023/09/24 14:28:51;;;;;;;2.85;1.02;;;;;;;;;;4988432;28;20034;-68
2023/09/24 14:31:16;;;;;;;1.38;0.80;;;;;;;;;;5006524;28;20112;-68
2023/09/24 14:33:42;;;;;;;4.43;0.85;;;;;;;;;;5010766;28;20033;-70
2023/09/24 14:36:07;;;;;;;2.28;0.95;;;;;;;;;;5009879;28;20018;-69
2023/09/24 14:38:33;;;;;;;3.80;0.90;;;;;;;;;;5011224;28;20010;-70
2023/09/24 14:40:58;;;;;;;2.15;0.80;;;;;;;;;;4992868;28;20021;-68